Clinton, New Jersey
Current Conditions -  °F | °C
As of 12:53 PM on Monday 22 Dec 2014 (Local Time) from KSMQ Reporting Station
Haze Haze  
Wind Chill: 39°   Ceiling: 900
Heat Index: 39°   Visibility: 4mi
Dew Point: 34°   Wind: 3mph
Humidity: 82%   Direction: 80°E
Pressure: 30.23"   Gusts: NA
Location:  40.64°N, 74.91°W
Report Text: KSMQ 221753Z AUTO 08003KT 4SM HZ OVC009 04/01 A3023 RMK AO2 SLP239 T00390011 10039 20011 58029
Loading
Personal Weather Stations






























Interactive Weather Map New forecast layout! Learn more

10-Day Weather Forecast

Advertisements
Track Severe Weather on mobile